Latest Weather Observations for Windorah

IDQ60801

Issued at 2:32 pm EST Sunday 19 November 2017 (issued every 30 minutes, with the page automatically refreshed every 10 minutes)

About weather observations | Map of weather stations | Latest weather observations for QLD | Other Formats
Station Details ID: 038076 Name: WINDORAH AIRPORT Lat: -25.41 Lon: 142.66 Height: 132.16 m
Data from the previous 72 hours. | See also: Recent months at Windorah
Date/Time
EST
Temp
°C
App
Temp
°C
Dew
Point
°C
Rel
Hum
%
Delta-T
°C
Wind Press
QNH
hPa
Press
MSL
hPa
Rain since
9am
mm
Dir  Spd
km/h
Gust
km/h
Spd
kts
Gust
kts
19/02:30pm 36.6 31.6 -1.4 9 18.7 ENE 15 20 8 11 1006.6 1005.8 0.0
19/02:00pm 35.9 31.4 -3.5 8 18.7 SSE 11 24 6 13 1007.1 1006.3 0.0
19/01:30pm 36.1 31.2 -3.3 8 18.7 SSE 13 19 7 10 1007.6 1006.8 0.0
19/01:00pm 35.9 30.2 -3.5 8 18.6 SSE 17 26 9 14 1008.1 1007.3 0.0
19/12:30pm 35.7 32.1 -2.0 9 18.2 N 7 17 4 9 1008.4 1007.6 0.0
19/12:00pm 35.0 29.4 -2.6 9 17.9 SSE 17 22 9 12 1008.7 1007.9 0.0
19/11:30am 34.4 30.7 -0.3 11 17.1 ESE 9 17 5 9 1008.9 1008.1 0.0
19/11:00am 34.4 31.4 2.0 13 16.6 E 7 11 4 6 1009.2 1008.4 0.0
19/10:30am 32.8 30.3 3.7 16 15.1 N 6 13 3 7 1009.3 1008.5 0.0
19/10:00am 31.4 27.6 5.8 20 13.7 NNE 15 20 8 11 1009.3 1008.5 0.0
19/09:30am 30.6 26.7 7.1 23 12.8 NE 17 24 9 13 1009.4 1008.6 0.0
19/09:00am 29.5 25.3 7.4 25 12.0 NNE 19 24 10 13 1009.3 1008.5 0.0
19/08:30am 27.6 23.1 6.9 27 11.0 NNE 20 30 11 16 1009.2 1008.4 0.0
19/08:00am 26.1 20.9 7.2 30 10.1 NE 24 30 13 16 1009.2 1008.4 0.0
19/07:30am 25.3 20.3 4.4 26 10.5 ENE 20 28 11 15 1009.0 1008.2 0.0
19/07:00am 21.4 18.1 -1.2 22 10.0 SSW 6 7 3 4 1008.7 1007.9 0.0
19/06:30am 19.6 16.0 -2.1 23 9.2 SW 7 9 4 5 1008.2 1007.4 0.0
19/06:00am 18.6 15.0 -2.3 24 8.8 SSW 7 11 4 6 1007.9 1007.1 0.0
19/05:30am 18.3 14.8 -2.6 24 8.7 WSW 6 7 3 4 1007.6 1006.8 0.0
19/05:00am 18.7 14.7 -2.3 24 8.8 SW 9 11 5 6 1007.3 1006.5 0.0
19/04:30am 19.2 15.2 -2.4 23 9.1 WSW 9 11 5 6 1007.2 1006.4 0.0
19/04:00am 19.4 15.3 -2.8 22 9.3 WSW 9 11 5 6 1006.8 1006.0 0.0
19/03:30am 19.8 15.7 -3.1 21 9.5 W 9 11 5 6 1006.8 1006.0 0.0
19/03:00am 20.3 16.2 -3.4 20 9.9 W 9 13 5 7 1006.6 1005.8 0.0
19/02:30am 20.6 16.0 -3.8 19 10.1 W 11 13 6 7 1006.7 1005.9 0.0
19/02:00am 21.9 16.8 -5.0 16 11.1 W 13 15 7 8 1007.1 1006.3 0.0
19/01:30am 21.7 17.4 -4.4 17 10.8 W 9 13 5 7 1007.5 1006.7 0.0
19/01:00am 23.1 17.9 -5.8 14 11.8 WSW 13 17 7 9 1007.7 1006.9 0.0
19/12:30am 23.9 18.7 -6.2 13 12.3 WSW 13 19 7 10 1008.0 1007.2 0.0
19/12:00am 24.5 19.0 -5.7 13 12.5 SW 15 19 8 10 1008.3 1007.5 0.0
 
Date/Time
EST
Temp
°C
App
Temp
°C
Dew
Point
°C
Rel
Hum
%
Delta-T
°C
Wind Press
QNH
hPa
Press
MSL
hPa
Rain since
9am
mm
Dir  Spd
km/h
Gust
km/h
Spd
kts
Gust
kts
18/11:30pm 25.1 18.8 -6.3 12 12.9 SW 19 24 10 13 1008.4 1007.6 0.0
18/11:00pm 25.7 19.8 -5.8 12 13.2 WSW 17 20 9 11 1008.6 1007.8 0.0
18/10:30pm 26.6 20.6 -6.2 11 13.7 SW 17 22 9 12 1008.6 1007.8 0.0
18/10:00pm 26.5 20.9 -6.3 11 13.7 SW 15 19 8 10 1008.6 1007.8 0.0
18/09:30pm 26.4 21.2 -6.4 11 13.7 SW 13 17 7 9 1008.3 1007.5 0.0
18/09:00pm 27.7 22.3 -8.0 9 14.6 SW 13 15 7 8 1008.0 1007.2 0.0
18/08:30pm 29.5 23.9 -6.7 9 15.4 SW 15 20 8 11 1007.7 1006.9 0.0
18/08:00pm 30.0 25.0 -7.8 8 15.9 SW 11 15 6 8 1007.5 1006.7 0.0
18/07:30pm 32.1 26.4 -8.0 7 17.1 SW 15 20 8 11 1007.3 1006.5 0.0
18/07:00pm 32.9 27.6 -7.4 7 17.5 SSW 13 20 7 11 1007.0 1006.2 0.0
18/06:30pm 34.2 28.6 -6.5 7 18.1 SSW 15 20 8 11 1006.6 1005.8 0.0
18/06:00pm 35.1 28.6 -7.8 6 18.8 SW 19 28 10 15 1006.5 1005.7 0.0
18/05:30pm 35.5 30.9 -7.5 6 19.0 SSW 9 19 5 10 1006.2 1005.4 0.0
18/05:00pm 35.8 30.5 -7.3 6 19.2 SW 13 24 7 13 1006.1 1005.3 0.0
18/04:30pm 36.3 29.9 -7.0 6 19.4 SW 19 32 10 17 1006.4 1005.6 0.0
18/04:00pm 36.2 30.2 -7.0 6 19.4 SW 17 30 9 16 1006.7 1005.9 0.0
18/03:30pm 35.5 29.4 -7.5 6 19.0 WSW 17 24 9 13 1006.9 1006.1 0.0
18/03:00pm 36.5 29.2 -6.8 6 19.5 WSW 24 33 13 18 1007.2 1006.4 0.0
18/02:30pm 35.8 29.4 -7.3 6 19.1 WNW 19 41 10 22 1007.6 1006.8 0.0
18/02:00pm 34.8 29.4 -8.0 6 18.7 SW 13 24 7 13 1007.9 1007.1 0.0
18/01:30pm 35.4 29.7 -7.6 6 18.9 W 15 28 8 15 1008.4 1007.6 0.0
18/01:00pm 34.2 27.8 -6.5 7 18.1 W 19 30 10 16 1008.9 1008.1 0.0
18/12:30pm 34.4 29.2 -6.3 7 18.2 SW 13 22 7 12 1009.4 1008.6 0.0
18/12:00pm 34.0 28.9 -4.9 8 17.7 WSW 13 24 7 13 1009.8 1009.0 0.0
18/11:30am 33.0 29.3 -2.6 10 16.7 ESE 7 13 4 7 1010.1 1009.3 0.0
18/11:00am 33.4 29.6 -1.0 11 16.7 WNW 9 15 5 8 1010.3 1009.5 0.0
18/10:30am 32.0 28.0 0.2 13 15.5 S 11 19 6 10 1010.6 1009.8 0.0
18/10:00am 31.5 28.1 1.8 15 14.9 SW 9 17 5 9 1010.7 1009.9 0.0
18/09:30am 30.1 26.5 3.2 18 13.7 SW 11 17 6 9 1011.0 1010.1 0.0
18/09:00am 28.4 24.9 1.0 17 13.3 S 9 15 5 8 1010.9 1010.0 0.0
18/08:30am 27.0 23.0 0.7 18 12.5 S 11 15 6 8 1010.9 1010.0 0.0
18/08:00am 24.9 21.1 -1.0 18 11.8 SW 9 13 5 7 1010.9 1010.0 0.0
18/07:30am 22.7 18.3 -2.8 18 11.0 SW 11 15 6 8 1010.9 1010.0 0.0
18/07:00am 20.6 16.9 -3.1 20 10.0 WSW 7 11 4 6 1010.6 1009.8 0.0
18/06:30am 18.8 14.7 -3.3 22 9.1 WSW 9 13 5 7 1010.3 1009.5 0.0
18/06:00am 18.0 13.9 -3.4 23 8.7 WSW 9 13 5 7 1009.9 1009.1 0.0
18/05:30am 17.5 13.0 -3.3 24 8.4 WSW 11 13 6 7 1009.7 1008.9 0.0
18/05:00am 17.9 13.4 -3.5 23 8.7 WSW 11 17 6 9 1009.4 1008.6 0.0
18/04:30am 18.3 13.7 -3.8 22 9.0 WSW 11 17 6 9 1009.3 1008.5 0.0
18/04:00am 18.6 14.1 -3.5 22 9.1 WSW 11 15 6 8 1009.5 1008.7 0.0
18/03:30am 18.7 13.8 -3.4 22 9.1 WSW 13 17 7 9 1009.5 1008.7 0.0
18/03:00am 19.2 14.3 -3.0 22 9.2 WSW 13 17 7 9 1009.6 1008.8 0.0
18/02:30am 19.4 14.6 -2.2 23 9.1 WSW 13 17 7 9 1010.0 1009.2 0.0
18/02:00am 19.8 15.5 -1.9 23 9.3 WSW 11 13 6 7 1010.1 1009.3 0.0
18/01:30am 20.4 16.1 -1.4 23 9.5 WSW 11 15 6 8 1010.3 1009.5 0.0
18/01:00am 20.4 16.7 -0.3 25 9.2 W 9 13 5 7 1010.4 1009.6 0.0
18/12:30am 21.3 17.5 -0.6 23 9.7 WSW 9 11 5 6 1010.6 1009.8 0.0
18/12:00am 21.9 18.5 -0.8 22 10.1 WSW 7 11 4 6 1011.0 1010.1 0.0
 
Date/Time
EST
Temp
°C
App
Temp
°C
Dew
Point
°C
Rel
Hum
%
Delta-T
°C
Wind Press
QNH
hPa
Press
MSL
hPa
Rain since
9am
mm
Dir  Spd
km/h
Gust
km/h
Spd
kts
Gust
kts
17/11:30pm 22.6 18.7 -1.5 20 10.6 SSW 9 11 5 6 1010.9 1010.0 0.0
17/11:00pm 23.8 19.1 -1.9 18 11.4 SSW 13 17 7 9 1011.1 1010.2 0.0
17/10:30pm 25.2 19.8 -1.6 17 12.1 SW 17 22 9 12 1010.9 1010.0 0.0
17/10:00pm 25.3 20.5 0.0 19 11.8 SW 15 19 8 10 1010.7 1009.9 0.0
17/09:30pm 26.3 21.9 0.1 18 12.3 WSW 13 17 7 9 1010.5 1009.7 0.0
17/09:00pm 27.5 22.8 1.1 18 12.7 SW 15 20 8 11 1010.2 1009.4 0.0
17/08:30pm 28.0 24.0 0.7 17 13.1 WSW 11 17 6 9 1009.8 1009.0 0.0
17/08:00pm 28.7 24.3 0.4 16 13.6 W 13 17 7 9 1009.4 1008.6 0.0
17/07:30pm 29.8 25.3 -0.5 14 14.4 W 13 15 7 8 1009.0 1008.2 0.0
17/07:00pm 31.4 26.5 -0.3 13 15.3 WSW 15 19 8 10 1008.6 1007.8 0.0
17/06:30pm 32.7 26.5 -0.4 12 16.1 WSW 22 28 12 15 1008.3 1007.5 0.0
17/06:00pm 33.6 28.1 0.3 12 16.5 SW 19 28 10 15 1008.0 1007.2 0.0
17/05:30pm 34.0 27.0 -0.6 11 16.9 WSW 26 35 14 19 1007.6 1006.8 0.0
17/05:00pm 34.0 27.2 -1.9 10 17.2 WSW 24 35 13 19 1007.5 1006.7 0.0
17/04:30pm 35.3 29.2 -2.3 9 18.0 SW 20 32 11 17 1007.5 1006.7 0.0
17/04:00pm 35.0 29.2 0.2 11 17.4 W 20 32 11 17 1007.5 1006.7 0.0
17/03:30pm 34.9 29.3 1.3 12 17.0 WNW 20 33 11 18 1007.8 1007.0 0.0
17/03:00pm 34.9 28.6 1.3 12 17.1 WSW 24 37 13 20 1008.1 1007.3 0.0
17/02:30pm 34.4 30.3 2.0 13 16.6 NW 13 20 7 11 1008.4 1007.6 0.0
17/02:00pm 34.9 30.6 1.3 12 17.1 WNW 13 24 7 13 1009.0 1008.2 0.0
17/01:30pm 34.3 29.4 2.0 13 16.5 W 17 28 9 15 1009.6 1008.8 0.0
17/01:00pm 34.5 29.6 4.1 15 16.1 W 19 30 10 16 1009.9 1009.1 0.0
17/12:30pm 33.6 29.1 6.0 18 15.0 WNW 19 32 10 17 1010.4 1009.6 0.0
17/12:00pm 33.0 29.9 5.5 18 14.8 NW 11 24 6 13 1010.7 1009.9 0.0
17/11:30am 32.5 29.0 7.4 21 13.8 WNW 15 32 8 17 1011.2 1010.3 0.0
17/11:01am 32.5 29.2 8.0 22 13.6 NW 15 28 8 15 1011.4 1010.5 0.0
17/11:00am 32.4 29.5 8.0 22 13.6 NNW 13 28 7 15 1011.4 1010.5 0.0
17/10:31am 31.4 29.3 8.4 24 12.8 NNW 9 15 5 8 1011.6 1010.7 0.0
17/10:30am 31.5 29.8 8.5 24 12.9 NNW 7 13 4 7 1011.7 1010.8 0.0
17/10:00am 30.3 28.0 7.5 24 12.5 SSE 9 15 5 8 1011.8 1010.9 0.0
17/09:30am 29.6 27.7 7.5 25 12.0 SSE 7 11 4 6 1011.8 1010.9 0.0
17/09:00am 28.8 26.1 7.4 26 11.6 SSE 11 19 6 10 1011.8 1010.9 0.0
17/08:30am 27.0 24.0 7.5 29 10.5 SE 13 20 7 11 1011.8 1010.9 0.0
17/08:00am 25.7 21.8 7.3 31 9.8 SSE 17 20 9 11 1011.8 1010.9 0.0
17/07:30am 24.3 21.2 7.4 34 8.9 S 13 17 7 9 1011.6 1010.7 0.0
17/07:00am 21.5 19.1 7.0 39 7.5 SSW 9 15 5 8 1011.5 1010.6 0.0
17/06:30am 19.3 16.4 6.4 43 6.5 SW 11 13 6 7 1011.5 1010.6 0.0
17/06:00am 17.8 15.6 6.0 46 5.8 WSW 7 11 4 6 1011.2 1010.3 0.0
17/05:30am 17.6 15.0 6.2 47 5.6 WSW 9 11 5 6 1011.1 1010.2 0.0
17/05:00am 18.0 15.4 5.9 45 6.0 WSW 9 11 5 6 1010.9 1010.0 0.0
17/04:30am 18.2 15.5 5.8 44 6.1 WSW 9 13 5 7 1010.7 1009.9 0.0
17/04:00am 18.5 15.9 6.0 44 6.2 WSW 9 17 5 9 1010.6 1009.8 0.0
17/03:30am 19.0 16.3 5.8 42 6.5 WSW 9 11 5 6 1010.6 1009.8 0.0
17/03:00am 19.5 16.9 5.9 41 6.8 WSW 9 13 5 7 1010.6 1009.8 0.0
17/02:30am 19.7 17.5 6.1 41 6.8 W 7 11 4 6 1010.7 1009.9 0.0
17/02:00am 20.6 17.9 5.4 37 7.6 WSW 9 11 5 6 1010.9 1010.0 0.0
17/01:30am 21.0 18.3 5.8 37 7.6 W 9 11 5 6 1011.1 1010.2 0.0
17/01:00am 21.8 19.1 5.7 35 8.1 SW 9 11 5 6 1011.2 1010.3 0.0
17/12:30am 22.0 19.3 5.8 35 8.2 WSW 9 13 5 7 1011.5 1010.6 0.0
17/12:00am 22.9 19.9 6.2 34 8.6 WSW 11 13 6 7 1011.8 1010.9 0.0
 
Date/Time
EST
Temp
°C
App
Temp
°C
Dew
Point
°C
Rel
Hum
%
Delta-T
°C
Wind Press
QNH
hPa
Press
MSL
hPa
Rain since
9am
mm
Dir  Spd
km/h
Gust
km/h
Spd
kts
Gust
kts
16/11:30pm 23.3 20.8 6.6 34 8.6 WSW 9 13 5 7 1011.9 1011.0 0.0
16/11:00pm 23.9 21.6 7.5 35 8.7 WSW 9 13 5 7 1011.9 1011.0 0.0
16/10:30pm 24.2 22.5 8.2 36 8.6 W 7 9 4 5 1011.6 1010.7 0.0
16/10:00pm 25.2 23.0 7.8 33 9.3 WSW 9 11 5 6 1011.4 1010.5 0.0
16/09:30pm 26.0 23.8 8.0 32 9.7 SW 9 11 5 6 1011.3 1010.4 0.0
16/09:00pm 26.5 24.0 8.0 31 10.0 SW 11 13 6 7 1011.1 1010.2 0.0
16/08:30pm 27.3 24.4 8.2 30 10.4 SSW 13 19 7 10 1010.6 1009.8 0.0
16/08:00pm 27.9 23.2 7.7 28 10.9 SSW 22 28 12 15 1010.6 1009.8 0.0
16/07:30pm 28.7 23.0 8.4 28 11.2 SSW 28 35 15 19 1010.3 1009.5 0.0
16/07:00pm 29.6 23.6 8.6 27 11.7 SW 30 39 16 21 1009.9 1009.1 0.0
16/06:30pm 30.9 25.6 8.6 25 12.4 SW 26 35 14 19 1009.5 1008.7 0.0
16/06:00pm 32.8 27.5 6.9 20 14.2 WSW 24 33 13 18 1009.2 1008.4 0.0
16/05:30pm 33.2 28.8 7.2 20 14.3 WSW 20 32 11 17 1008.9 1008.1 0.0
16/05:00pm 33.5 28.4 7.5 20 14.5 W 24 33 13 18 1008.8 1008.0 0.0
16/04:30pm 33.8 29.6 8.4 21 14.3 W 20 33 11 18 1008.7 1007.9 0.0
16/04:00pm 33.5 28.3 8.9 22 14.0 SW 26 43 14 23 1008.8 1008.0 0.0
16/03:30pm 33.7 29.7 8.3 21 14.3 WSW 19 30 10 16 1008.8 1008.0 0.0
16/03:00pm 33.3 30.1 10.0 24 13.5 WSW 17 33 9 18 1009.1 1008.3 0.0

Other Formats:

Comma delimited format used in spreadsheet applications
http://www.bom.gov.au/fwo/IDQ60801/IDQ60801.94489.axf

JavaScript Object Notation format (JSON) in row-major order
http://www.bom.gov.au/fwo/IDQ60801/IDQ60801.94489.json